createdAt,value
2017-10-19T00:00:21.915Z,14.96
2017-10-19T00:02:49.576Z,14.87
2017-10-19T00:05:17.496Z,14.67
2017-10-19T00:07:45.134Z,14.67
2017-10-19T00:10:13.017Z,14.70
2017-10-19T00:12:40.651Z,14.52
2017-10-19T00:15:08.278Z,14.57
2017-10-19T00:17:35.898Z,14.49
2017-10-19T00:20:03.473Z,14.47
2017-10-19T00:22:31.096Z,14.53
2017-10-19T00:24:58.769Z,14.49
2017-10-19T00:27:26.345Z,14.36
2017-10-19T00:29:54.842Z,14.25
2017-10-19T00:32:22.981Z,14.35
2017-10-19T00:34:50.648Z,14.14
2017-10-19T00:37:18.425Z,14.12
2017-10-19T00:39:46.060Z,14.01
2017-10-19T00:42:13.778Z,14.03
2017-10-19T00:44:41.360Z,13.98
2017-10-19T00:47:09.155Z,13.94
2017-10-19T00:49:36.827Z,14.01
2017-10-19T00:52:04.460Z,14.06
2017-10-19T00:54:32.140Z,14.02
2017-10-19T00:56:59.790Z,13.96
2017-10-19T00:59:27.404Z,14.06
2017-10-19T01:01:55.069Z,14.13
2017-10-19T01:04:22.741Z,14.18
2017-10-19T01:06:50.312Z,14.21
2017-10-19T01:09:17.936Z,14.09
2017-10-19T01:11:45.578Z,13.86
2017-10-19T01:14:13.429Z,14.04
2017-10-19T01:16:41.057Z,13.82
2017-10-19T01:19:08.705Z,14.00
2017-10-19T01:21:36.303Z,14.00
2017-10-19T01:24:03.958Z,13.87
2017-10-19T01:26:31.601Z,13.94
2017-10-19T01:28:59.199Z,13.88
2017-10-19T01:31:26.880Z,13.93
2017-10-19T01:34:00.643Z,13.90
2017-10-19T01:36:28.325Z,13.82
2017-10-19T01:38:56.016Z,13.85
2017-10-19T01:41:23.666Z,13.90
2017-10-19T01:43:51.543Z,13.83
2017-10-19T01:46:19.156Z,13.95
2017-10-19T01:48:46.783Z,13.82
2017-10-19T01:51:15.078Z,13.93
2017-10-19T01:53:42.745Z,13.88
2017-10-19T01:56:10.371Z,13.77
2017-10-19T01:58:38.195Z,13.51
2017-10-19T02:01:05.833Z,13.60
2017-10-19T02:03:33.480Z,13.54
2017-10-19T02:06:01.359Z,13.54
2017-10-19T02:08:28.986Z,13.54
2017-10-19T02:10:56.552Z,13.58
2017-10-19T02:13:24.142Z,13.60
2017-10-19T02:15:52.266Z,13.58
2017-10-19T02:18:19.884Z,13.60
2017-10-19T02:20:47.461Z,13.51
2017-10-19T02:23:15.090Z,13.64
2017-10-19T02:25:42.916Z,13.61
2017-10-19T02:28:10.485Z,13.59
2017-10-19T02:30:38.298Z,13.29
2017-10-19T02:33:05.896Z,13.28
2017-10-19T02:35:34.318Z,13.26
2017-10-19T02:38:01.950Z,13.24
2017-10-19T02:40:29.584Z,12.98
2017-10-19T02:42:57.535Z,13.02
2017-10-19T02:45:25.248Z,13.09
2017-10-19T02:47:55.928Z,12.96
2017-10-19T02:50:23.575Z,13.04
2017-10-19T02:52:51.286Z,13.06
2017-10-19T02:55:19.096Z,13.08
2017-10-19T02:57:46.787Z,13.04
2017-10-19T03:00:14.499Z,13.01
2017-10-19T03:02:42.168Z,12.94
2017-10-19T03:05:09.840Z,12.77
2017-10-19T03:07:37.472Z,12.85
2017-10-19T03:10:05.062Z,12.89
2017-10-19T03:12:32.706Z,12.93
2017-10-19T03:15:00.330Z,12.80
2017-10-19T03:17:28.168Z,12.94
2017-10-19T03:19:55.851Z,12.90
2017-10-19T03:22:23.473Z,12.81
2017-10-19T03:24:51.288Z,12.79
2017-10-19T03:27:18.916Z,12.84
2017-10-19T03:29:46.606Z,12.77
2017-10-19T03:32:14.298Z,12.82
2017-10-19T03:34:41.940Z,12.86
2017-10-19T03:37:09.955Z,12.80
2017-10-19T03:39:37.579Z,12.69
2017-10-19T03:42:05.584Z,12.64
2017-10-19T03:44:33.237Z,12.62
2017-10-19T03:47:00.900Z,12.74
2017-10-19T03:49:28.559Z,12.76
2017-10-19T03:51:56.386Z,12.65
2017-10-19T03:54:24.173Z,12.64
2017-10-19T03:56:51.830Z,12.66
2017-10-19T03:59:19.507Z,12.67
2017-10-19T04:01:47.184Z,12.70
2017-10-19T04:04:14.833Z,12.76
2017-10-19T04:06:42.406Z,12.70
2017-10-19T04:09:10.057Z,12.69
2017-10-19T04:11:37.866Z,12.68
2017-10-19T04:14:05.708Z,12.68
2017-10-19T04:16:33.372Z,13.75
2017-10-19T04:19:00.957Z,15.41
2017-10-19T04:21:28.628Z,15.92
2017-10-19T04:23:56.264Z,16.60
2017-10-19T04:26:24.137Z,16.33
2017-10-19T04:28:51.712Z,16.31
2017-10-19T04:31:19.362Z,15.71
2017-10-19T04:33:46.935Z,14.63
2017-10-19T04:36:14.549Z,13.94
2017-10-19T04:38:42.182Z,13.67
2017-10-19T04:41:09.804Z,13.35
2017-10-19T04:43:37.381Z,13.64
2017-10-19T04:46:05.055Z,13.34
2017-10-19T04:48:32.626Z,13.23
2017-10-19T04:51:00.208Z,13.07
2017-10-19T04:53:27.850Z,13.22
2017-10-19T04:55:55.460Z,13.29
2017-10-19T04:58:23.087Z,13.46
2017-10-19T05:00:50.830Z,13.42
2017-10-19T05:03:18.454Z,13.69
2017-10-19T05:05:46.080Z,13.96
2017-10-19T05:08:13.781Z,14.06
2017-10-19T05:10:41.435Z,14.14
2017-10-19T05:13:09.049Z,14.11
2017-10-19T05:15:36.693Z,14.01
2017-10-19T05:18:04.256Z,13.99
2017-10-19T05:20:31.882Z,13.68
2017-10-19T05:22:59.519Z,13.33
2017-10-19T05:25:27.150Z,13.21
2017-10-19T05:27:54.749Z,12.99
2017-10-19T05:30:22.417Z,13.30
2017-10-19T05:32:49.985Z,13.69
2017-10-19T05:35:17.546Z,13.50
2017-10-19T05:37:45.173Z,13.71
2017-10-19T05:40:12.734Z,13.62
2017-10-19T05:42:40.289Z,13.68
2017-10-19T05:45:07.898Z,13.76
2017-10-19T05:47:35.476Z,14.04
2017-10-19T05:50:03.079Z,14.28
2017-10-19T05:52:30.732Z,14.52
2017-10-19T05:54:58.309Z,14.68
2017-10-19T05:57:25.897Z,14.26
2017-10-19T05:59:53.512Z,14.79
2017-10-19T06:02:21.159Z,15.24
2017-10-19T06:04:48.777Z,15.34
2017-10-19T06:07:16.357Z,15.55
2017-10-19T06:09:44.016Z,15.80
2017-10-19T06:12:11.576Z,16.12
2017-10-19T06:14:39.141Z,16.23
2017-10-19T06:17:06.767Z,16.14
2017-10-19T06:19:34.344Z,16.92
2017-10-19T06:22:01.956Z,17.70
2017-10-19T06:24:30.296Z,18.15
2017-10-19T06:26:57.902Z,18.81
2017-10-19T06:29:25.480Z,19.65
2017-10-19T06:31:53.170Z,19.87
2017-10-19T06:34:20.760Z,20.39
2017-10-19T06:36:48.345Z,20.79
2017-10-19T06:39:16.834Z,20.65
2017-10-19T06:41:44.427Z,21.33
2017-10-19T06:44:12.378Z,21.87
2017-10-19T06:46:39.993Z,22.20
2017-10-19T06:49:07.560Z,22.12
2017-10-19T06:51:35.148Z,22.32
2017-10-19T06:54:02.773Z,22.55
2017-10-19T06:56:30.721Z,22.57
2017-10-19T06:58:58.331Z,22.82
2017-10-19T07:01:25.982Z,23.06
2017-10-19T07:03:54.688Z,23.38
2017-10-19T07:06:22.302Z,23.96
2017-10-19T07:08:49.904Z,24.58
2017-10-19T07:11:17.747Z,24.48
2017-10-19T07:13:45.355Z,24.85
2017-10-19T07:16:13.049Z,24.53
2017-10-19T07:18:40.637Z,24.91
2017-10-19T07:21:08.243Z,25.17
2017-10-19T07:23:36.569Z,25.17
2017-10-19T07:26:04.236Z,25.35
2017-10-19T07:28:31.846Z,25.63
2017-10-19T07:30:59.505Z,24.96
2017-10-19T07:33:27.095Z,25.48
2017-10-19T07:35:54.703Z,25.19
2017-10-19T07:38:22.362Z,25.24
2017-10-19T07:40:49.970Z,25.20
2017-10-19T07:43:17.773Z,25.24
2017-10-19T07:45:45.408Z,24.87
2017-10-19T07:48:12.973Z,25.51
2017-10-19T07:50:40.541Z,25.99
2017-10-19T07:53:08.242Z,26.58
2017-10-19T07:55:35.803Z,26.51
2017-10-19T07:58:03.412Z,26.26
2017-10-19T08:00:31.045Z,26.69
2017-10-19T08:02:58.872Z,26.60
2017-10-19T08:05:26.437Z,26.75
2017-10-19T08:07:54.038Z,26.66
2017-10-19T08:10:22.025Z,26.93
2017-10-19T08:12:49.608Z,27.60
2017-10-19T08:15:17.217Z,27.82
2017-10-19T08:17:44.862Z,27.41
2017-10-19T08:20:12.449Z,27.04
2017-10-19T08:22:40.069Z,27.03
2017-10-19T08:25:07.665Z,27.51
2017-10-19T08:27:35.322Z,27.48
2017-10-19T08:30:05.186Z,27.67
2017-10-19T08:32:32.789Z,27.34
2017-10-19T08:35:00.368Z,27.65
2017-10-19T08:37:27.999Z,27.67
2017-10-19T08:39:55.625Z,27.50
2017-10-19T08:42:23.257Z,27.38
2017-10-19T08:44:50.870Z,27.06
2017-10-19T08:47:18.697Z,27.22
2017-10-19T08:49:46.557Z,26.77
2017-10-19T08:52:14.173Z,25.94
2017-10-19T08:54:42.118Z,26.53
2017-10-19T08:57:09.918Z,26.46
2017-10-19T08:59:37.592Z,26.10
2017-10-19T09:02:05.225Z,26.10
2017-10-19T09:04:33.021Z,25.93
2017-10-19T09:07:00.588Z,26.49
2017-10-19T09:09:28.222Z,26.55
2017-10-19T09:11:55.843Z,26.86
2017-10-19T09:14:23.429Z,27.38
2017-10-19T09:16:51.024Z,27.56
2017-10-19T09:19:18.645Z,27.76
2017-10-19T09:21:46.213Z,27.97
2017-10-19T09:24:13.844Z,27.77
2017-10-19T09:26:41.437Z,28.38
2017-10-19T09:29:09.011Z,28.77
2017-10-19T09:31:36.667Z,29.46
2017-10-19T09:34:04.250Z,29.94
2017-10-19T09:36:31.809Z,29.93
2017-10-19T09:38:59.424Z,29.95
2017-10-19T09:41:26.985Z,30.33
2017-10-19T09:43:54.606Z,29.87
2017-10-19T09:46:22.230Z,29.49
2017-10-19T09:48:49.793Z,29.49
2017-10-19T09:51:17.373Z,29.28
2017-10-19T09:53:45.069Z,29.19
2017-10-19T09:56:12.989Z,28.73
2017-10-19T09:58:40.559Z,28.29
2017-10-19T10:01:08.168Z,28.61
2017-10-19T10:03:36.018Z,28.91
2017-10-19T10:06:03.640Z,29.15
2017-10-19T10:08:31.263Z,28.46
2017-10-19T10:10:58.832Z,28.17
2017-10-19T10:13:26.393Z,27.65
2017-10-19T10:15:54.017Z,28.36
2017-10-19T10:18:21.598Z,28.93
2017-10-19T10:20:49.198Z,29.21
2017-10-19T10:23:16.877Z,29.33
2017-10-19T10:25:44.548Z,29.42
2017-10-19T10:28:12.152Z,29.52
2017-10-19T10:30:39.754Z,28.35
2017-10-19T10:33:07.322Z,27.83
2017-10-19T10:35:34.945Z,27.91
2017-10-19T10:38:02.568Z,28.26
2017-10-19T10:40:30.156Z,28.25
2017-10-19T10:42:57.732Z,28.26
2017-10-19T10:45:25.342Z,28.19
2017-10-19T10:47:53.150Z,27.97
2017-10-19T10:50:20.961Z,27.46
2017-10-19T10:52:48.618Z,27.00
2017-10-19T10:55:16.191Z,26.40
2017-10-19T10:57:43.767Z,26.85
2017-10-19T11:00:11.521Z,27.02
2017-10-19T11:02:39.141Z,27.17
2017-10-19T11:05:07.622Z,27.12
2017-10-19T11:07:35.237Z,27.46
2017-10-19T11:10:02.828Z,27.90
2017-10-19T11:12:30.404Z,27.77
2017-10-19T11:14:58.057Z,27.53
2017-10-19T11:17:26.412Z,26.61
2017-10-19T11:19:53.990Z,26.79
2017-10-19T11:22:21.610Z,26.76
2017-10-19T11:24:49.184Z,26.98
2017-10-19T11:27:16.783Z,27.43
2017-10-19T11:29:44.503Z,27.56
2017-10-19T11:32:12.131Z,27.51
2017-10-19T11:34:40.716Z,27.57
2017-10-19T11:37:11.036Z,27.18
2017-10-19T11:39:38.669Z,27.23
2017-10-19T11:42:06.235Z,27.43
2017-10-19T11:44:33.902Z,27.71
2017-10-19T11:47:01.526Z,27.45
2017-10-19T11:49:29.108Z,27.11
2017-10-19T11:51:56.675Z,26.48
2017-10-19T11:54:24.364Z,26.52
2017-10-19T11:56:51.934Z,26.73
2017-10-19T11:59:19.485Z,26.78
2017-10-19T12:01:47.239Z,26.60
2017-10-19T12:04:14.810Z,26.83
2017-10-19T12:06:42.424Z,26.83
2017-10-19T12:09:10.077Z,27.07
2017-10-19T12:11:38.279Z,27.42
2017-10-19T12:14:06.233Z,27.27
2017-10-19T12:16:33.840Z,27.14
2017-10-19T12:19:01.429Z,27.12
2017-10-19T12:21:29.017Z,26.87
2017-10-19T12:23:56.717Z,26.95
2017-10-19T12:26:24.298Z,26.34
2017-10-19T12:28:51.861Z,26.53
2017-10-19T12:31:19.469Z,26.78
2017-10-19T12:33:47.457Z,27.07
2017-10-19T12:36:15.096Z,27.36
2017-10-19T12:38:42.755Z,27.47
2017-10-19T12:41:10.392Z,27.25
2017-10-19T12:43:37.959Z,26.83
2017-10-19T12:46:05.647Z,27.00
2017-10-19T12:48:33.257Z,26.42
2017-10-19T12:51:00.814Z,26.26
2017-10-19T12:53:28.561Z,25.99
2017-10-19T12:55:56.854Z,26.00
2017-10-19T12:58:24.479Z,25.93
2017-10-19T13:00:52.120Z,25.94
2017-10-19T13:03:19.830Z,25.51
2017-10-19T13:05:47.530Z,25.63
2017-10-19T13:08:15.141Z,25.79
2017-10-19T13:10:42.716Z,25.75
2017-10-19T13:13:10.329Z,25.50
2017-10-19T13:15:37.958Z,25.54
2017-10-19T13:18:05.528Z,25.72
2017-10-19T13:20:33.099Z,25.57
2017-10-19T13:23:00.709Z,25.41
2017-10-19T13:25:28.361Z,25.32
2017-10-19T13:27:55.982Z,25.37
2017-10-19T13:30:23.912Z,25.29
2017-10-19T13:32:51.500Z,25.19
2017-10-19T13:35:19.063Z,25.06
2017-10-19T13:37:46.797Z,25.25
2017-10-19T13:40:14.419Z,25.16
2017-10-19T13:42:41.984Z,25.06
2017-10-19T13:45:09.592Z,25.01
2017-10-19T13:47:37.171Z,24.94
2017-10-19T13:50:04.729Z,24.75
2017-10-19T13:52:32.392Z,24.75
2017-10-19T13:54:59.981Z,24.77
2017-10-19T13:57:27.564Z,24.73
2017-10-19T13:59:55.188Z,24.63
2017-10-19T14:02:22.823Z,24.57
2017-10-19T14:04:50.376Z,24.61
2017-10-19T14:07:18.025Z,24.56
2017-10-19T14:09:45.641Z,24.51
2017-10-19T14:12:13.292Z,24.47
2017-10-19T14:14:40.868Z,24.47
2017-10-19T14:17:08.474Z,24.44
2017-10-19T14:19:36.071Z,24.48
2017-10-19T14:22:03.680Z,24.36
2017-10-19T14:24:31.425Z,24.32
2017-10-19T14:26:59.003Z,24.36
2017-10-19T14:29:26.637Z,24.31
2017-10-19T14:31:54.362Z,24.26
2017-10-19T14:34:22.077Z,24.31
2017-10-19T14:36:49.680Z,24.15
2017-10-19T14:39:17.289Z,24.21
2017-10-19T14:41:44.895Z,24.03
2017-10-19T14:44:12.643Z,24.18
2017-10-19T14:46:40.280Z,24.16
2017-10-19T14:49:07.889Z,24.14
2017-10-19T14:51:35.665Z,24.09
2017-10-19T14:54:03.322Z,24.05
2017-10-19T14:56:32.376Z,24.04
2017-10-19T14:58:59.995Z,23.91
2017-10-19T15:01:27.740Z,23.88
2017-10-19T15:03:55.412Z,23.87
2017-10-19T15:06:23.038Z,23.75
2017-10-19T15:08:50.625Z,23.66
2017-10-19T15:11:18.194Z,23.60
2017-10-19T15:13:45.933Z,23.58
2017-10-19T15:16:13.772Z,23.54
2017-10-19T15:18:41.478Z,23.37
2017-10-19T15:21:09.047Z,23.30
2017-10-19T15:23:36.689Z,23.27
2017-10-19T15:26:04.298Z,23.19
2017-10-19T15:28:31.869Z,23.03
2017-10-19T15:30:59.481Z,22.98
2017-10-19T15:33:27.063Z,22.79
2017-10-19T15:35:54.651Z,22.79
2017-10-19T15:38:22.296Z,22.88
2017-10-19T15:40:49.907Z,22.87
2017-10-19T15:43:17.483Z,22.94
2017-10-19T15:45:45.137Z,22.85
2017-10-19T15:48:12.716Z,22.67
2017-10-19T15:53:44.600Z,22.54
2017-10-19T15:56:12.272Z,22.47
2017-10-19T15:58:39.854Z,22.49
2017-10-19T16:01:07.481Z,22.27
2017-10-19T16:03:35.094Z,22.31
2017-10-19T16:06:02.673Z,22.22
2017-10-19T16:08:30.302Z,22.09
2017-10-19T16:10:57.914Z,22.04
2017-10-19T16:13:25.510Z,21.98
2017-10-19T16:15:53.104Z,21.86
2017-10-19T16:18:20.688Z,21.62
2017-10-19T16:20:48.243Z,21.47
2017-10-19T16:23:15.846Z,21.47
2017-10-19T16:25:43.461Z,21.15
2017-10-19T16:28:11.024Z,21.09
2017-10-19T16:30:38.641Z,20.70
2017-10-19T16:33:06.211Z,20.72
2017-10-19T16:35:33.835Z,20.64
2017-10-19T16:38:01.443Z,20.51
2017-10-19T16:40:29.004Z,20.31
2017-10-19T16:42:56.566Z,20.62
2017-10-19T16:45:24.276Z,20.45
2017-10-19T16:47:52.297Z,20.19
2017-10-19T16:50:19.875Z,20.07
2017-10-19T16:52:47.521Z,20.15
2017-10-19T16:55:15.088Z,20.09
2017-10-19T16:57:42.643Z,19.97
2017-10-19T17:00:10.701Z,19.66
2017-10-19T17:02:38.287Z,19.84
2017-10-19T17:05:05.868Z,19.76
2017-10-19T17:07:33.488Z,19.77
2017-10-19T17:10:01.105Z,19.77
2017-10-19T17:12:28.753Z,19.87
2017-10-19T17:14:56.365Z,19.77
2017-10-19T17:17:24.201Z,19.48
2017-10-19T17:19:51.782Z,19.58
2017-10-19T17:22:19.436Z,19.55
2017-10-19T17:24:47.053Z,19.37
2017-10-19T17:27:15.035Z,19.35
2017-10-19T17:29:42.662Z,19.33
2017-10-19T17:32:10.532Z,19.39
2017-10-19T17:34:38.121Z,19.22
2017-10-19T17:37:05.766Z,19.21
2017-10-19T17:39:33.394Z,19.31
2017-10-19T17:42:00.977Z,19.28
2017-10-19T17:44:28.553Z,19.27
2017-10-19T17:46:56.176Z,19.02
2017-10-19T17:49:23.884Z,18.95
2017-10-19T17:51:51.497Z,18.79
2017-10-19T17:54:19.097Z,18.70
2017-10-19T17:56:46.666Z,18.59
2017-10-19T17:59:14.309Z,18.59
2017-10-19T18:01:41.926Z,18.67
2017-10-19T18:04:09.505Z,18.37
2017-10-19T18:06:37.136Z,18.48
2017-10-19T18:09:04.809Z,18.27
2017-10-19T18:11:32.399Z,18.28
2017-10-19T18:14:00.019Z,17.96
2017-10-19T18:16:27.640Z,17.82
2017-10-19T18:18:55.225Z,17.61
2017-10-19T18:21:22.794Z,17.59
2017-10-19T18:23:50.416Z,17.61
2017-10-19T18:26:18.253Z,17.45
2017-10-19T18:28:45.903Z,17.26
2017-10-19T18:31:13.535Z,17.13
2017-10-19T18:33:41.209Z,17.13
2017-10-19T18:36:09.034Z,17.08
2017-10-19T18:38:36.646Z,16.97
2017-10-19T18:41:04.219Z,17.05
2017-10-19T18:43:32.045Z,17.28
2017-10-19T18:45:59.696Z,17.30
2017-10-19T18:48:27.273Z,17.44
2017-10-19T18:50:55.636Z,17.21
2017-10-19T18:53:24.401Z,17.33
2017-10-19T18:55:52.001Z,17.11
2017-10-19T18:58:19.641Z,16.76
2017-10-19T19:00:47.332Z,16.93
2017-10-19T19:03:15.187Z,17.35
2017-10-19T19:05:42.842Z,17.54
2017-10-19T19:08:10.459Z,17.58
2017-10-19T19:10:38.113Z,17.44
2017-10-19T19:13:05.820Z,17.49
2017-10-19T19:15:33.592Z,17.51
2017-10-19T19:18:01.161Z,17.71
2017-10-19T19:20:28.830Z,17.97
2017-10-19T19:22:56.789Z,17.86
2017-10-19T19:25:24.378Z,17.86
2017-10-19T19:27:52.177Z,17.85
2017-10-19T19:30:19.785Z,17.82
2017-10-19T19:32:48.459Z,17.72
2017-10-19T19:35:16.098Z,17.54
2017-10-19T19:37:43.705Z,17.69
2017-10-19T19:40:11.516Z,17.82
2017-10-19T19:42:39.088Z,17.73
2017-10-19T19:45:06.694Z,17.72
2017-10-19T19:47:34.254Z,17.50
2017-10-19T19:50:01.830Z,17.60
2017-10-19T19:52:29.446Z,17.45
2017-10-19T19:54:57.175Z,17.46
2017-10-19T19:57:24.788Z,17.21
2017-10-19T19:59:52.401Z,17.33
2017-10-19T20:02:21.891Z,17.32
2017-10-19T20:04:54.265Z,17.19
2017-10-19T20:07:23.069Z,17.04
2017-10-19T20:09:50.753Z,16.96
2017-10-19T20:12:22.137Z,16.84
2017-10-19T20:14:53.696Z,16.82
2017-10-19T20:17:21.296Z,16.72
2017-10-19T20:19:48.897Z,16.64
2017-10-19T20:22:16.548Z,16.65
2017-10-19T20:24:44.161Z,16.55
2017-10-19T20:27:11.760Z,16.35
2017-10-19T20:29:39.389Z,16.32
2017-10-19T20:32:07.029Z,16.15
2017-10-19T20:34:34.965Z,16.15
2017-10-19T20:37:02.533Z,15.98
2017-10-19T20:39:30.205Z,15.75
2017-10-19T20:41:57.845Z,15.24
2017-10-19T20:44:25.404Z,15.22
2017-10-19T20:46:53.030Z,15.40
2017-10-19T20:49:20.600Z,15.56
2017-10-19T20:51:48.166Z,15.72
2017-10-19T20:54:15.768Z,15.87
2017-10-19T20:56:43.336Z,15.98
2017-10-19T20:59:10.926Z,15.83
2017-10-19T21:01:38.578Z,16.11
2017-10-19T21:04:06.407Z,15.98
2017-10-19T21:06:33.999Z,15.75
2017-10-19T21:09:01.631Z,15.65
2017-10-19T21:11:29.206Z,15.54
2017-10-19T21:13:56.807Z,15.48
2017-10-19T21:16:24.493Z,15.55
2017-10-19T21:18:52.492Z,15.67
2017-10-19T21:21:20.130Z,15.21
2017-10-19T21:23:47.754Z,15.00
2017-10-19T21:26:15.405Z,15.25
2017-10-19T21:28:43.054Z,15.45
2017-10-19T21:31:10.672Z,15.40
2017-10-19T21:33:38.281Z,15.42
2017-10-19T21:36:05.879Z,15.44
2017-10-19T21:38:33.510Z,15.40
2017-10-19T21:41:01.130Z,15.59
2017-10-19T21:43:28.785Z,15.64
2017-10-19T21:45:56.508Z,15.57
2017-10-19T21:48:24.179Z,15.50
2017-10-19T21:50:51.910Z,15.47
2017-10-19T21:53:19.518Z,15.34
2017-10-19T21:55:47.084Z,15.40
2017-10-19T21:58:14.692Z,15.39
2017-10-19T22:00:42.389Z,15.38
2017-10-19T22:03:09.956Z,15.35
2017-10-19T22:05:37.514Z,15.38
2017-10-19T22:08:05.143Z,15.34
2017-10-19T22:10:32.751Z,15.29
2017-10-19T22:13:00.372Z,15.40
2017-10-19T22:15:28.128Z,15.43
2017-10-19T22:17:55.766Z,15.50
2017-10-19T22:20:23.419Z,15.42
2017-10-19T22:22:51.086Z,15.50
2017-10-19T22:25:18.709Z,15.49
2017-10-19T22:27:46.363Z,15.40
2017-10-19T22:30:14.112Z,15.43
2017-10-19T22:32:41.786Z,15.35
2017-10-19T22:35:09.398Z,15.31
2017-10-19T22:37:37.051Z,15.43
2017-10-19T22:40:04.673Z,15.50
2017-10-19T22:42:32.295Z,15.51
2017-10-19T22:44:59.987Z,15.23
2017-10-19T22:47:27.584Z,15.16
2017-10-19T22:49:55.181Z,15.12
2017-10-19T22:52:22.880Z,15.09
2017-10-19T22:54:50.538Z,14.93
2017-10-19T22:57:18.197Z,14.93
2017-10-19T22:59:45.890Z,14.84
2017-10-19T23:02:13.573Z,14.90
2017-10-19T23:04:41.186Z,14.96
2017-10-19T23:07:10.140Z,14.90
2017-10-19T23:09:37.914Z,14.95
2017-10-19T23:12:05.594Z,14.95
2017-10-19T23:14:33.262Z,14.95
2017-10-19T23:17:00.929Z,14.72
2017-10-19T23:19:28.623Z,14.83
2017-10-19T23:21:56.249Z,14.86
2017-10-19T23:24:23.975Z,14.88
2017-10-19T23:26:51.571Z,14.85
2017-10-19T23:29:19.125Z,14.90
2017-10-19T23:31:46.805Z,14.74
2017-10-19T23:34:14.421Z,14.68
2017-10-19T23:36:42.010Z,14.65
2017-10-19T23:39:09.624Z,14.62
2017-10-19T23:41:37.255Z,14.65
2017-10-19T23:44:04.822Z,14.71
2017-10-19T23:46:32.424Z,14.73
2017-10-19T23:49:00.058Z,14.62
2017-10-19T23:51:27.685Z,14.25
2017-10-19T23:53:55.449Z,14.35
2017-10-19T23:56:23.017Z,14.45
2017-10-19T23:58:50.613Z,14.53
